Time;durP1;ratioP1;P1;durP2;ratioP2;P2;SDS_P1;SDS_P2;PMS_P1;PMS_P2;Temp;Humidity;BMP_temperature;BMP_pressure;BME280_temperature;BME280_humidity;BME280_pressure;Samples;Min_cycle;Max_cycle;Signal;HPM_P1;HPM_P2
2022/08/27 00:01:55;;;;;;;;;;;23.10;74.20;;;;;;5066279;28;1355;-67
2022/08/27 00:04:21;;;;;;;;;;;23.10;74.20;;;;;;5085760;28;1278;-68
2022/08/27 00:06:46;;;;;;;;;;;23.10;74.20;;;;;;5091475;22;3577;-67
2022/08/27 00:09:12;;;;;;;;;;;23.10;74.20;;;;;;5048948;28;1240;-67
2022/08/27 00:11:38;;;;;;;;;;;23.10;74.20;;;;;;5026721;28;1272;-67
2022/08/27 00:14:03;;;;;;;;;;;23.10;75.00;;;;;;5043792;28;1228;-67
2022/08/27 00:16:29;;;;;;;;;;;23.10;74.30;;;;;;5048793;28;1272;-66
2022/08/27 00:18:54;;;;;;;;;;;23.10;74.30;;;;;;5055030;28;1961;-65
2022/08/27 00:21:20;;;;;;;;;;;23.10;74.20;;;;;;5054738;28;1263;-65
2022/08/27 00:23:45;;;;;;;;;;;23.10;74.20;;;;;;5055066;28;1318;-66
2022/08/27 00:26:11;;;;;;;;;;;23.10;74.20;;;;;;5054906;28;1247;-66
2022/08/27 00:28:37;;;;;;;;;;;23.10;74.20;;;;;;5037340;28;1268;-67
2022/08/27 00:31:02;;;;;;;;;;;23.10;74.20;;;;;;5053565;28;859;-66
2022/08/27 00:33:29;;;;;;;;;;;23.10;74.20;;;;;;5055271;28;1068;-66
2022/08/27 00:35:55;;;;;;;;;;;23.10;74.20;;;;;;5055083;28;1196;-66
2022/08/27 00:38:20;;;;;;;;;;;23.10;74.30;;;;;;5053986;28;1890;-67
2022/08/27 00:40:46;;;;;;;;;;;23.10;74.20;;;;;;5054031;28;883;-66
2022/08/27 00:43:12;;;;;;;;;;;23.10;74.20;;;;;;5053621;28;892;-65
2022/08/27 00:45:39;;;;;;;;;;;23.10;74.30;;;;;;5053790;28;1185;-66
2022/08/27 00:48:05;;;;;;;;;;;23.10;74.30;;;;;;5053774;28;717;-66
2022/08/27 00:50:32;;;;;;;;;;;23.10;74.20;;;;;;5054929;28;794;-66
2022/08/27 00:52:58;;;;;;;;;;;23.10;74.30;;;;;;5053513;28;807;-65
2022/08/27 00:55:26;;;;;;;;;;;23.00;74.20;;;;;;5053825;28;1262;-67
2022/08/27 00:58:06;;;;;;;;;;;23.10;74.30;;;;;;5036890;28;1890;-66
2022/08/27 01:00:31;;;;;;;;;;;23.10;74.30;;;;;;5054999;28;1009;-65
2022/08/27 01:02:57;;;;;;;;;;;23.10;74.30;;;;;;5054331;28;1113;-66
2022/08/27 01:05:24;;;;;;;;;;;23.10;75.00;;;;;;5055091;28;806;-66
2022/08/27 01:07:50;;;;;;;;;;;23.10;74.30;;;;;;5036905;28;1327;-67
2022/08/27 01:10:17;;;;;;;;;;;23.00;74.30;;;;;;5036844;28;844;-67
2022/08/27 01:12:42;;;;;;;;;;;23.00;75.00;;;;;;5036489;28;895;-67
2022/08/27 01:15:09;;;;;;;;;;;23.00;74.30;;;;;;5054591;28;930;-67
2022/08/27 01:17:35;;;;;;;;;;;23.10;74.30;;;;;;5036141;28;1949;-67
2022/08/27 01:20:02;;;;;;;;;;;23.10;74.30;;;;;;5054535;28;852;-66
2022/08/27 01:22:31;;;;;;;;;;;23.10;74.30;;;;;;5054223;28;783;-66
2022/08/27 01:25:07;;;;;;;;;;;23.00;75.00;;;;;;5054509;28;788;-63
2022/08/27 01:27:33;;;;;;;;;;;23.10;74.30;;;;;;5036018;28;1252;-63
2022/08/27 01:29:58;;;;;;;;;;;23.10;74.30;;;;;;5054052;28;894;-63
2022/08/27 01:32:28;;;;;;;;;;;23.00;74.30;;;;;;5053769;28;800;-65
2022/08/27 01:34:53;;;;;;;;;;;23.00;74.30;;;;;;5054028;28;883;-65
2022/08/27 01:37:19;;;;;;;;;;;23.10;74.30;;;;;;5035892;28;1890;-66
2022/08/27 01:39:44;;;;;;;;;;;23.10;74.30;;;;;;5054057;28;709;-63
2022/08/27 01:42:17;;;;;;;;;;;23.10;74.30;;;;;;5052881;28;867;-64
2022/08/27 01:44:50;;;;;;;;;;;23.10;74.30;;;;;;5036176;28;895;-66
2022/08/27 01:47:15;;;;;;;;;;;23.00;74.30;;;;;;5053761;28;1279;-65
2022/08/27 01:49:41;;;;;;;;;;;23.10;74.30;;;;;;5036059;28;914;-65
2022/08/27 01:52:06;;;;;;;;;;;23.10;74.30;;;;;;5053606;28;902;-65
2022/08/27 01:54:32;;;;;;;;;;;23.10;74.30;;;;;;5054316;28;1159;-65
2022/08/27 01:56:57;;;;;;;;;;;23.00;74.30;;;;;;5052489;28;1225;-66
2022/08/27 01:59:22;;;;;;;;;;;23.10;74.30;;;;;;5053471;28;1906;-65
2022/08/27 02:01:48;;;;;;;;;;;23.00;74.30;;;;;;5053786;28;756;-66
2022/08/27 02:04:13;;;;;;;;;;;23.00;74.30;;;;;;5052641;28;890;-67
2022/08/27 02:06:39;;;;;;;;;;;23.00;74.30;;;;;;5053438;28;1234;-66
2022/08/27 02:09:04;;;;;;;;;;;23.10;74.30;;;;;;5053984;28;808;-66
2022/08/27 02:11:30;;;;;;;;;;;23.00;74.30;;;;;;5053414;28;799;-67
2022/08/27 02:13:55;;;;;;;;;;;23.10;74.40;;;;;;5035382;28;1363;-66
2022/08/27 02:16:21;;;;;;;;;;;23.10;74.30;;;;;;5053314;28;1208;-66
2022/08/27 02:18:46;;;;;;;;;;;23.10;74.30;;;;;;5053293;28;1959;-67
2022/08/27 02:21:14;;;;;;;;;;;23.00;74.30;;;;;;5052152;28;811;-65
2022/08/27 02:23:40;;;;;;;;;;;23.00;74.30;;;;;;5053453;28;819;-63
2022/08/27 02:26:06;;;;;;;;;;;23.00;74.30;;;;;;5053621;28;1208;-65
2022/08/27 02:28:33;;;;;;;;;;;23.00;74.30;;;;;;5053350;28;1213;-66
2022/08/27 02:30:59;;;;;;;;;;;23.00;74.30;;;;;;5053048;28;866;-66
2022/08/27 02:33:25;;;;;;;;;;;23.10;74.30;;;;;;5053411;28;823;-66
2022/08/27 02:35:50;;;;;;;;;;;23.00;74.30;;;;;;5051881;28;1153;-65
2022/08/27 02:38:16;;;;;;;;;;;23.10;74.30;;;;;;5053307;28;1953;-66
2022/08/27 02:40:41;;;;;;;;;;;23.00;74.30;;;;;;5051899;28;780;-68
2022/08/27 02:43:07;;;;;;;;;;;23.00;74.30;;;;;;5051472;28;807;-68
2022/08/27 02:45:32;;;;;;;;;;;23.10;74.40;;;;;;5034906;28;1224;-65
2022/08/27 02:47:58;;;;;;;;;;;23.00;74.30;;;;;;5051771;28;951;-66
2022/08/27 02:50:23;;;;;;;;;;;23.10;74.30;;;;;;5052977;28;1009;-68
2022/08/27 02:52:49;;;;;;;;;;;23.00;74.30;;;;;;5052534;28;791;-68
2022/08/27 02:55:15;;;;;;;;;;;23.00;75.00;;;;;;5052801;28;1120;-66
2022/08/27 02:57:41;;;;;;;;;;;23.00;74.30;;;;;;5033711;28;2177;-68
2022/08/27 03:00:07;;;;;;;;;;;23.00;74.40;;;;;;5053153;28;1261;-67
2022/08/27 03:02:33;;;;;;;;;;;23.10;74.30;;;;;;5051198;28;1097;-64
2022/08/27 03:04:58;;;;;;;;;;;23.00;74.30;;;;;;5052730;28;1102;-65
2022/08/27 03:07:23;;;;;;;;;;;23.00;74.30;;;;;;5052508;28;1279;-63
2022/08/27 03:09:49;;;;;;;;;;;23.00;74.30;;;;;;5053202;28;800;-65
2022/08/27 03:12:15;;;;;;;;;;;23.00;74.30;;;;;;5052308;28;1073;-67
2022/08/27 03:14:40;;;;;;;;;;;23.10;74.30;;;;;;5034806;28;1157;-67
2022/08/27 03:19:50;;;;;;;;;;;23.10;74.40;;;;;;5052877;28;637;-66
2022/08/27 03:22:15;;;;;;;;;;;23.00;74.30;;;;;;5052519;28;1052;-67
2022/08/27 03:24:41;;;;;;;;;;;23.10;74.40;;;;;;5052697;28;779;-67
2022/08/27 03:27:07;;;;;;;;;;;23.00;74.30;;;;;;5052423;28;1236;-66
2022/08/27 03:29:33;;;;;;;;;;;23.00;74.30;;;;;;5034781;28;1006;-66
2022/08/27 03:31:59;;;;;;;;;;;23.00;74.30;;;;;;5052500;28;855;-68
2022/08/27 03:34:24;;;;;;;;;;;23.00;74.40;;;;;;5052646;28;970;-67
2022/08/27 03:36:50;;;;;;;;;;;23.00;74.40;;;;;;5034775;28;1221;-67
2022/08/27 03:39:15;;;;;;;;;;;23.00;74.30;;;;;;5052421;28;1955;-66
2022/08/27 03:41:41;;;;;;;;;;;23.10;74.40;;;;;;5052350;28;1001;-67
2022/08/27 03:44:06;;;;;;;;;;;23.00;74.30;;;;;;5052544;28;1009;-67
2022/08/27 03:46:32;;;;;;;;;;;23.00;74.30;;;;;;5052364;28;1208;-67
2022/08/27 03:48:57;;;;;;;;;;;23.00;74.40;;;;;;5052505;28;1304;-64
2022/08/27 03:51:22;;;;;;;;;;;23.00;74.40;;;;;;5052244;28;1139;-66
2022/08/27 03:53:48;;;;;;;;;;;23.00;74.40;;;;;;5052179;28;1303;-67
2022/08/27 03:56:13;;;;;;;;;;;23.00;74.30;;;;;;5034430;28;1420;-67
2022/08/27 03:58:39;;;;;;;;;;;23.00;74.30;;;;;;5052436;28;1965;-68
2022/08/27 04:01:05;;;;;;;;;;;23.00;74.30;;;;;;5034510;28;1221;-66
2022/08/27 04:03:30;;;;;;;;;;;23.10;74.40;;;;;;5052346;28;1037;-67
2022/08/27 04:05:56;;;;;;;;;;;23.00;74.30;;;;;;5036456;28;1288;-68
2022/08/27 04:08:22;;;;;;;;;;;23.00;74.40;;;;;;5037854;28;823;-68
2022/08/27 04:10:48;;;;;;;;;;;23.00;74.30;;;;;;5055942;28;816;-67
2022/08/27 04:13:13;;;;;;;;;;;23.00;74.30;;;;;;5037917;28;973;-66
2022/08/27 04:15:43;;;;;;;;;;;23.00;74.40;;;;;;5033268;28;1904;-64
2022/08/27 04:18:08;;;;;;;;;;;23.00;74.40;;;;;;5055313;28;1965;-64
2022/08/27 04:20:34;;;;;;;;;;;23.00;74.30;;;;;;5055270;28;1130;-65
2022/08/27 04:22:59;;;;;;;;;;;23.00;74.40;;;;;;5037322;28;1061;-66
2022/08/27 04:25:25;;;;;;;;;;;23.00;74.40;;;;;;5037689;28;1184;-66
2022/08/27 04:27:50;;;;;;;;;;;23.00;74.40;;;;;;5054968;28;1343;-66
2022/08/27 04:30:18;;;;;;;;;;;23.00;74.40;;;;;;5055579;28;823;-67
2022/08/27 04:32:43;;;;;;;;;;;23.00;74.30;;;;;;5055001;28;932;-66
2022/08/27 04:35:10;;;;;;;;;;;23.00;74.40;;;;;;5055367;28;867;-66
2022/08/27 04:37:35;;;;;;;;;;;23.00;74.40;;;;;;5037005;28;1902;-66
2022/08/27 04:40:01;;;;;;;;;;;23.00;74.40;;;;;;5055293;28;1008;-66
2022/08/27 04:42:26;;;;;;;;;;;23.00;74.40;;;;;;5055165;28;899;-65
2022/08/27 04:44:52;;;;;;;;;;;23.10;74.40;;;;;;5055281;28;807;-67
2022/08/27 04:47:17;;;;;;;;;;;23.10;74.40;;;;;;5053479;28;1316;-68
2022/08/27 04:49:43;;;;;;;;;;;23.00;74.40;;;;;;5055047;28;807;-67
2022/08/27 04:52:09;;;;;;;;;;;23.00;74.40;;;;;;5054406;28;752;-68
2022/08/27 04:54:34;;;;;;;;;;;23.00;74.40;;;;;;5036907;28;1127;-66
2022/08/27 04:57:00;;;;;;;;;;;23.00;74.40;;;;;;5036810;28;1287;-66
2022/08/27 04:59:25;;;;;;;;;;;23.00;74.40;;;;;;5053637;28;1953;-66
2022/08/27 05:01:51;;;;;;;;;;;23.00;74.50;;;;;;5054469;28;783;-66
2022/08/27 05:04:17;;;;;;;;;;;23.10;74.40;;;;;;5054891;28;804;-67
2022/08/27 05:06:44;;;;;;;;;;;23.00;74.40;;;;;;5052784;28;1197;-66
2022/08/27 05:09:11;;;;;;;;;;;23.00;74.40;;;;;;5053880;28;844;-66
2022/08/27 05:11:36;;;;;;;;;;;23.00;74.40;;;;;;5054506;28;1068;-64
2022/08/27 05:14:02;;;;;;;;;;;23.00;74.50;;;;;;5054517;28;876;-65
2022/08/27 05:16:28;;;;;;;;;;;23.10;74.50;;;;;;5053763;28;1369;-65
2022/08/27 05:18:53;;;;;;;;;;;23.00;74.50;;;;;;5051446;28;1902;-67
2022/08/27 05:21:23;;;;;;;;;;;23.00;74.50;;;;;;5053453;28;759;-68
2022/08/27 05:23:49;;;;;;;;;;;23.10;74.50;;;;;;5054291;28;862;-67
2022/08/27 05:26:14;;;;;;;;;;;23.10;74.50;;;;;;5053048;28;1296;-67
2022/08/27 05:28:39;;;;;;;;;;;23.00;74.50;;;;;;5036282;28;1091;-67
2022/08/27 05:31:06;;;;;;;;;;;23.00;74.50;;;;;;5053002;28;780;-67
2022/08/27 05:33:31;;;;;;;;;;;23.00;74.50;;;;;;5052811;28;796;-67
2022/08/27 05:35:57;;;;;;;;;;;23.10;74.60;;;;;;5053764;28;1295;-68
2022/08/27 05:38:23;;;;;;;;;;;23.00;74.50;;;;;;5052763;28;1894;-67
2022/08/27 05:40:49;;;;;;;;;;;23.00;74.50;;;;;;5036156;28;1196;-67
2022/08/27 05:43:15;;;;;;;;;;;23.00;74.50;;;;;;5053844;28;930;-67
2022/08/27 05:45:41;;;;;;;;;;;23.00;74.50;;;;;;5053954;28;1209;-67
2022/08/27 05:48:06;;;;;;;;;;;23.10;74.50;;;;;;5048229;28;1562;-68
2022/08/27 05:50:32;;;;;;;;;;;23.10;74.50;;;;;;5035700;28;994;-69
2022/08/27 05:52:58;;;;;;;;;;;23.00;74.50;;;;;;5053380;28;1060;-66
2022/08/27 05:55:23;;;;;;;;;;;23.00;74.50;;;;;;5037258;28;1111;-66
2022/08/27 05:57:49;;;;;;;;;;;23.00;74.50;;;;;;5033850;28;1901;-67
2022/08/27 06:02:58;;;;;;;;;;;23.10;74.50;;;;;;5033577;28;598;-66
2022/08/27 06:05:24;;;;;;;;;;;23.10;74.50;;;;;;5032681;28;790;-66
2022/08/27 06:07:49;;;;;;;;;;;23.00;74.50;;;;;;5068981;22;2054;-68
2022/08/27 06:10:15;;;;;;;;;;;23.10;74.50;;;;;;5052167;28;941;-67
2022/08/27 06:12:40;;;;;;;;;;;23.00;74.50;;;;;;5051990;28;795;-69
2022/08/27 06:15:06;;;;;;;;;;;23.10;74.50;;;;;;5053517;28;820;-68
2022/08/27 06:17:31;;;;;;;;;;;23.00;74.50;;;;;;5051716;28;1977;-68
2022/08/27 06:19:56;;;;;;;;;;;23.00;74.50;;;;;;5053172;28;941;-68
2022/08/27 06:22:22;;;;;;;;;;;23.00;74.50;;;;;;5053295;28;982;-68
2022/08/27 06:24:47;;;;;;;;;;;23.10;74.50;;;;;;5053090;28;1072;-68
2022/08/27 06:27:13;;;;;;;;;;;23.00;74.50;;;;;;5046435;28;1188;-67
2022/08/27 06:29:39;;;;;;;;;;;23.10;74.50;;;;;;5031695;28;970;-67
2022/08/27 06:32:05;;;;;;;;;;;23.00;74.50;;;;;;5031717;28;842;-69
2022/08/27 06:34:30;;;;;;;;;;;23.00;74.50;;;;;;5031934;28;823;-68
2022/08/27 06:36:56;;;;;;;;;;;23.10;74.50;;;;;;5033056;28;1291;-71
2022/08/27 06:39:21;;;;;;;;;;;23.00;74.50;;;;;;5015364;28;1903;-69
2022/08/27 06:41:49;;;;;;;;;;;23.10;74.50;;;;;;5033064;28;697;-69
2022/08/27 06:44:14;;;;;;;;;;;23.00;74.50;;;;;;5033192;28;847;-70
2022/08/27 06:46:40;;;;;;;;;;;23.00;74.50;;;;;;5032642;28;1295;-68
2022/08/27 06:49:05;;;;;;;;;;;23.00;74.50;;;;;;5032916;28;828;-69
2022/08/27 06:51:31;;;;;;;;;;;23.10;74.50;;;;;;5031522;28;804;-70
2022/08/27 06:53:57;;;;;;;;;;;23.00;74.50;;;;;;5036400;28;1140;-70
2022/08/27 06:56:23;;;;;;;;;;;23.00;74.50;;;;;;5051434;28;1225;-70
2022/08/27 06:58:54;;;;;;;;;;;23.10;74.50;;;;;;5051604;28;1898;-71
2022/08/27 07:01:26;;;;;;;;;;;23.00;74.50;;;;;;5051133;28;1014;-69
2022/08/27 07:03:57;;;;;;;;;;;23.00;74.50;;;;;;5051549;28;779;-69
2022/08/27 07:06:23;;;;;;;;;;;23.00;74.50;;;;;;5034679;28;1352;-69
2022/08/27 07:08:48;;;;;;;;;;;23.00;74.50;;;;;;5052906;28;971;-69
2022/08/27 07:11:14;;;;;;;;;;;23.10;74.50;;;;;;5051201;28;816;-69
2022/08/27 07:13:40;;;;;;;;;;;23.00;74.50;;;;;;5034766;28;1358;-70
2022/08/27 07:16:06;;;;;;;;;;;23.00;74.50;;;;;;5052393;28;780;-69
2022/08/27 07:18:31;;;;;;;;;;;23.00;74.50;;;;;;5052511;28;1919;-69
2022/08/27 07:20:57;;;;;;;;;;;23.00;74.50;;;;;;5051093;28;784;-70
2022/08/27 07:23:22;;;;;;;;;;;23.00;74.50;;;;;;5052484;28;926;-69
2022/08/27 07:25:48;;;;;;;;;;;23.00;74.50;;;;;;5051180;28;895;-70
2022/08/27 07:28:13;;;;;;;;;;;23.10;74.50;;;;;;5064712;28;1237;-69
2022/08/27 07:30:39;;;;;;;;;;;23.00;74.50;;;;;;5071221;28;800;-69
2022/08/27 07:33:04;;;;;;;;;;;23.00;74.50;;;;;;5072199;28;807;-68
2022/08/27 07:35:30;;;;;;;;;;;23.00;74.50;;;;;;5072496;28;961;-68
2022/08/27 07:37:55;;;;;;;;;;;23.00;74.50;;;;;;5072087;28;1964;-69
2022/08/27 07:40:21;;;;;;;;;;;23.00;74.50;;;;;;5056503;28;731;-69
2022/08/27 07:45:31;;;;;;;;;;;23.00;74.50;;;;;;5075344;28;681;-70
2022/08/27 07:47:56;;;;;;;;;;;23.00;74.50;;;;;;5075861;28;1201;-68
2022/08/27 07:50:22;;;;;;;;;;;23.00;74.50;;;;;;5074921;28;854;-68
2022/08/27 07:52:50;;;;;;;;;;;23.00;74.50;;;;;;5075722;28;855;-69
2022/08/27 07:55:16;;;;;;;;;;;23.00;74.50;;;;;;5059238;28;1178;-68
2022/08/27 07:57:43;;;;;;;;;;;23.00;74.50;;;;;;5054261;28;1963;-69
2022/08/27 08:00:09;;;;;;;;;;;23.00;74.50;;;;;;5038160;28;1168;-68
2022/08/27 08:02:35;;;;;;;;;;;23.10;74.50;;;;;;5054193;28;1219;-68
2022/08/27 08:05:01;;;;;;;;;;;23.00;74.50;;;;;;5056127;28;804;-68
2022/08/27 08:07:27;;;;;;;;;;;23.00;74.50;;;;;;5055618;28;1268;-68
2022/08/27 08:09:53;;;;;;;;;;;23.00;74.50;;;;;;5054604;28;882;-69
2022/08/27 08:12:18;;;;;;;;;;;23.00;74.50;;;;;;5055413;28;862;-68
2022/08/27 08:14:45;;;;;;;;;;;23.00;74.50;;;;;;5054477;28;881;-69
2022/08/27 08:17:11;;;;;;;;;;;23.00;74.50;;;;;;5055389;28;1205;-68
2022/08/27 08:19:37;;;;;;;;;;;23.00;74.50;;;;;;5055620;28;1961;-67
2022/08/27 08:22:02;;;;;;;;;;;23.00;74.50;;;;;;5055545;28;883;-67
2022/08/27 08:24:27;;;;;;;;;;;23.00;74.50;;;;;;5054137;28;1281;-68
2022/08/27 08:26:53;;;;;;;;;;;23.00;74.50;;;;;;5027162;28;2234;-68
2022/08/27 08:29:18;;;;;;;;;;;23.00;74.50;;;;;;5055491;28;1204;-68
2022/08/27 08:31:44;;;;;;;;;;;23.00;74.50;;;;;;5055063;28;1166;-69
2022/08/27 08:34:09;;;;;;;;;;;23.00;74.50;;;;;;5054153;28;899;-70
2022/08/27 08:36:35;;;;;;;;;;;23.00;74.50;;;;;;5055217;28;1280;-69
2022/08/27 08:39:00;;;;;;;;;;;23.00;74.50;;;;;;5053993;28;1898;-69
2022/08/27 08:41:41;;;;;;;;;;;23.00;74.50;;;;;;5054651;28;1056;-69
2022/08/27 08:44:11;;;;;;;;;;;23.10;74.50;;;;;;5053895;28;1002;-69
2022/08/27 08:46:38;;;;;;;;;;;23.00;74.50;;;;;;5053584;28;1319;-69
2022/08/27 08:49:17;;;;;;;;;;;23.00;74.50;;;;;;5053682;28;802;-68
2022/08/27 08:51:42;;;;;;;;;;;23.10;74.50;;;;;;5036288;28;1286;-69
2022/08/27 08:54:08;;;;;;;;;;;23.00;74.50;;;;;;5036836;28;1216;-69
2022/08/27 08:56:53;;;;;;;;;;;23.00;74.50;;;;;;5036949;28;1303;-68
2022/08/27 08:59:27;;;;;;;;;;;23.00;74.50;;;;;;5054731;28;1965;-68
2022/08/27 09:01:53;;;;;;;;;;;23.00;74.50;;;;;;5036792;28;1168;-69
2022/08/27 09:04:19;;;;;;;;;;;23.00;74.50;;;;;;5036718;28;816;-70
2022/08/27 09:07:07;;;;;;;;;;;23.00;74.50;;;;;;5036885;28;1216;-68
2022/08/27 09:09:53;;;;;;;;;;;23.00;74.50;;;;;;5054539;28;1187;-69
2022/08/27 09:12:23;;;;;;;;;;;23.00;74.50;;;;;;5043575;28;1042;-70
2022/08/27 09:14:49;;;;;;;;;;;23.00;74.50;;;;;;5037062;28;855;-70
2022/08/27 09:17:14;;;;;;;;;;;23.00;74.50;;;;;;5053255;28;1288;-70
2022/08/27 09:19:41;;;;;;;;;;;23.00;74.50;;;;;;5052271;28;1172;-70
2022/08/27 09:22:19;;;;;;;;;;;23.00;74.50;;;;;;5034975;28;2200;-70
2022/08/27 09:24:48;;;;;;;;;;;23.00;74.50;;;;;;5052868;28;1114;-70
2022/08/27 09:27:14;;;;;;;;;;;23.00;74.50;;;;;;5058035;28;1319;-70
2022/08/27 09:29:47;;;;;;;;;;;23.00;74.50;;;;;;5042135;28;1262;-70
2022/08/27 09:32:12;;;;;;;;;;;23.00;74.50;;;;;;5020653;28;2203;-70
2022/08/27 09:34:38;;;;;;;;;;;23.00;74.50;;;;;;5035501;28;1323;-69
2022/08/27 09:37:09;;;;;;;;;;;23.00;74.50;;;;;;5034141;28;1400;-70
2022/08/27 09:39:47;;;;;;;;;;;23.00;74.50;;;;;;5053613;28;1953;-70
2022/08/27 09:42:29;;;;;;;;;;;23.00;74.50;;;;;;5052613;28;869;-68
2022/08/27 09:44:55;;;;;;;;;;;23.00;74.50;;;;;;5052825;28;791;-68
2022/08/27 09:47:21;;;;;;;;;;;23.00;74.50;;;;;;5052535;28;1140;-69
2022/08/27 09:49:46;;;;;;;;;;;23.00;74.50;;;;;;5052839;28;986;-68
2022/08/27 09:52:26;;;;;;;;;;;23.00;74.50;;;;;;5035557;28;1290;-69
2022/08/27 09:54:54;;;;;;;;;;;23.00;74.50;;;;;;5051134;28;2284;-69
2022/08/27 09:57:27;;;;;;;;;;;23.00;74.50;;;;;;5051840;28;1973;-69
2022/08/27 09:59:52;;;;;;;;;;;23.00;74.50;;;;;;5052232;28;1728;-69
2022/08/27 10:02:20;;;;;;;;;;;23.00;74.50;;;;;;5051080;28;1530;-69
2022/08/27 10:05:08;;;;;;;;;;;23.00;74.50;;;;;;5034065;28;1159;-69
2022/08/27 10:07:51;;;;;;;;;;;23.00;74.50;;;;;;5053079;28;1419;-69
2022/08/27 10:10:18;;;;;;;;;;;23.00;74.50;;;;;;5052008;28;2193;-69
2022/08/27 10:12:46;;;;;;;;;;;23.00;74.50;;;;;;5035392;28;1582;-68
2022/08/27 10:15:13;;;;;;;;;;;23.00;74.50;;;;;;5052278;28;1183;-69
2022/08/27 10:17:44;;;;;;;;;;;23.00;74.50;;;;;;5052179;28;1902;-69
2022/08/27 10:20:13;;;;;;;;;;;23.00;74.50;;;;;;5052464;28;878;-68
2022/08/27 10:22:49;;;;;;;;;;;23.00;74.50;;;;;;5052010;28;827;-68
2022/08/27 10:25:36;;;;;;;;;;;23.00;75.20;;;;;;5052403;28;870;-69
2022/08/27 10:28:12;;;;;;;;;;;23.00;74.50;;;;;;5064101;28;1382;-70
2022/08/27 10:30:41;;;;;;;;;;;23.00;74.50;;;;;;5054780;28;1577;-70
2022/08/27 10:33:06;;;;;;;;;;;23.00;74.50;;;;;;5052949;28;1021;-70
2022/08/27 10:35:40;;;;;;;;;;;23.00;74.50;;;;;;5053269;28;1141;-69
2022/08/27 10:38:08;;;;;;;;;;;23.00;74.50;;;;;;5035093;28;1906;-70
2022/08/27 10:40:37;;;;;;;;;;;23.00;74.50;;;;;;5053204;28;911;-70
2022/08/27 10:43:18;;;;;;;;;;;23.00;74.50;;;;;;5035146;28;1136;-70
2022/08/27 10:45:44;;;;;;;;;;;23.00;74.50;;;;;;5052006;28;2288;-70
2022/08/27 10:48:18;;;;;;;;;;;23.00;74.50;;;;;;5052632;28;1283;-68
2022/08/27 10:50:44;;;;;;;;;;;23.00;74.50;;;;;;5052773;28;1210;-69
2022/08/27 10:53:19;;;;;;;;;;;23.00;74.50;;;;;;5035023;28;920;-69
2022/08/27 10:55:50;;;;;;;;;;;23.00;74.50;;;;;;5052828;28;1254;-68
2022/08/27 10:58:24;;;;;;;;;;;23.00;74.50;;;;;;5051357;28;2266;-69
2022/08/27 11:00:59;;;;;;;;;;;23.00;74.50;;;;;;5052510;28;855;-69
2022/08/27 11:03:26;;;;;;;;;;;23.00;74.50;;;;;;5051395;28;704;-68
2022/08/27 11:05:52;;;;;;;;;;;23.00;74.50;;;;;;5051208;28;2238;-69
2022/08/27 11:08:22;;;;;;;;;;;23.00;74.50;;;;;;5049721;28;1299;-68
2022/08/27 11:10:49;;;;;;;;;;;23.00;74.50;;;;;;5044066;28;1230;-69
2022/08/27 11:13:23;;;;;;;;;;;23.00;74.50;;;;;;5023939;28;1287;-68
2022/08/27 11:15:48;;;;;;;;;;;23.00;74.50;;;;;;5028790;28;1938;-69
2022/08/27 11:18:17;;;;;;;;;;;23.00;74.50;;;;;;5053774;28;1967;-69
2022/08/27 11:20:44;;;;;;;;;;;23.00;74.50;;;;;;5051188;28;1870;-69
2022/08/27 11:23:15;;;;;;;;;;;23.00;74.50;;;;;;5046865;28;1049;-70
2022/08/27 11:25:51;;;;;;;;;;;23.00;74.50;;;;;;5056136;28;1943;-72
2022/08/27 11:28:21;;;;;;;;;;;23.00;74.50;;;;;;5065622;28;1404;-71
2022/08/27 11:30:47;;;;;;;;;;;23.00;74.50;;;;;;5046116;28;1094;-71
2022/08/27 11:33:16;;;;;;;;;;;23.00;74.50;;;;;;5053341;28;1961;-71
2022/08/27 11:35:41;;;;;;;;;;;23.00;74.50;;;;;;5051028;28;1912;-72
2022/08/27 11:38:26;;;;;;;;;;;23.00;74.50;;;;;;5034182;28;1909;-72
2022/08/27 11:40:51;;;;;;;;;;;23.00;74.50;;;;;;5046953;28;1246;-70
2022/08/27 11:43:21;;;;;;;;;;;23.00;74.50;;;;;;5046139;28;1355;-70
2022/08/27 11:45:57;;;;;;;;;;;23.00;74.50;;;;;;5027199;28;1292;-70
2022/08/27 11:48:23;;;;;;;;;;;23.00;74.50;;;;;;5020647;28;1402;-71
2022/08/27 11:51:09;;;;;;;;;;;23.00;74.50;;;;;;5053921;28;2170;-71
2022/08/27 11:53:38;;;;;;;;;;;23.00;74.50;;;;;;5037865;28;1308;-71
2022/08/27 11:56:14;;;;;;;;;;;23.00;74.50;;;;;;5037782;28;906;-71
2022/08/27 11:58:40;;;;;;;;;;;23.00;74.50;;;;;;5037737;28;1955;-72
2022/08/27 12:01:13;;;;;;;;;;;23.00;74.50;;;;;;5037433;28;1203;-71
2022/08/27 12:03:39;;;;;;;;;;;23.00;74.50;;;;;;5037605;28;1323;-71
2022/08/27 12:06:09;;;;;;;;;;;23.00;74.50;;;;;;5054179;28;800;-71
2022/08/27 12:08:35;;;;;;;;;;;23.00;74.50;;;;;;5063901;22;3640;-69
2022/08/27 12:11:15;;;;;;;;;;;23.00;74.50;;;;;;5013877;28;1056;-69
2022/08/27 12:13:43;;;;;;;;;;;23.00;74.50;;;;;;5015563;28;811;-69
2022/08/27 12:16:31;;;;;;;;;;;23.00;74.50;;;;;;5015414;28;906;-69
2022/08/27 12:19:00;;;;;;;;;;;23.00;74.50;;;;;;5010694;28;1922;-69
2022/08/27 12:21:44;;;;;;;;;;;23.00;74.50;;;;;;4993615;28;776;-69
2022/08/27 12:24:22;;;;;;;;;;;23.00;74.50;;;;;;4989549;28;1874;-69
2022/08/27 12:26:55;;;;;;;;;;;23.00;74.50;;;;;;4994628;28;1270;-69
2022/08/27 12:29:28;;;;;;;;;;;23.00;74.50;;;;;;4977196;28;1744;-69
2022/08/27 12:32:13;;;;;;;;;;;23.00;74.50;;;;;;4993191;28;1926;-68
2022/08/27 12:35:02;;;;;;;;;;;23.00;74.50;;;;;;4991400;28;1169;-69
2022/08/27 12:37:29;;;;;;;;;;;23.00;74.50;;;;;;4991653;28;1887;-69
2022/08/27 12:39:55;;;;;;;;;;;23.00;74.50;;;;;;4993582;28;1882;-69
2022/08/27 12:42:20;;;;;;;;;;;23.00;74.50;;;;;;5008012;28;1997;-70
2022/08/27 12:44:46;;;;;;;;;;;23.00;74.50;;;;;;4994060;28;1313;-69
2022/08/27 12:47:12;;;;;;;;;;;23.00;74.50;;;;;;4996913;28;1292;-69
2022/08/27 12:49:52;;;;;;;;;;;23.00;74.50;;;;;;4975664;28;1018;-69
2022/08/27 12:52:18;;;;;;;;;;;23.00;74.50;;;;;;4976312;28;1096;-69
2022/08/27 12:55:02;;;;;;;;;;;23.00;74.50;;;;;;4994745;28;1094;-70
2022/08/27 12:57:27;;;;;;;;;;;23.00;74.50;;;;;;4987438;28;1948;-69
2022/08/27 12:59:56;;;;;;;;;;;23.00;74.50;;;;;;4993673;28;1135;-69
2022/08/27 13:02:31;;;;;;;;;;;23.00;74.50;;;;;;4991785;28;1300;-70
2022/08/27 13:05:00;;;;;;;;;;;23.00;74.50;;;;;;4993051;28;1188;-71
2022/08/27 13:07:26;;;;;;;;;;;23.00;74.50;;;;;;4991070;28;2212;-70
2022/08/27 13:09:51;;;;;;;;;;;23.00;74.50;;;;;;4960739;28;1372;-69
2022/08/27 13:12:17;;;;;;;;;;;23.00;74.50;;;;;;4993084;28;1569;-70
2022/08/27 13:14:42;;;;;;;;;;;23.00;74.50;;;;;;4993399;28;1632;-69
2022/08/27 13:17:10;;;;;;;;;;;23.00;74.50;;;;;;4994073;28;1427;-69
2022/08/27 13:19:42;;;;;;;;;;;23.00;74.50;;;;;;4994555;28;1984;-69
2022/08/27 13:22:07;;;;;;;;;;;23.00;74.50;;;;;;4993286;28;859;-69
2022/08/27 13:24:43;;;;;;;;;;;23.00;74.50;;;;;;4985647;28;1803;-68
2022/08/27 13:27:09;;;;;;;;;;;23.00;74.50;;;;;;4988629;28;1305;-68
2022/08/27 13:29:34;;;;;;;;;;;23.00;74.50;;;;;;5028895;28;863;-68
2022/08/27 13:32:00;;;;;;;;;;;23.00;74.50;;;;;;5012424;28;835;-69
2022/08/27 13:34:26;;;;;;;;;;;23.00;74.50;;;;;;5013844;28;848;-68
2022/08/27 13:37:01;;;;;;;;;;;23.00;74.50;;;;;;5027361;28;1228;-68
2022/08/27 13:39:27;;;;;;;;;;;23.00;74.50;;;;;;5028788;28;1955;-67
2022/08/27 13:41:52;;;;;;;;;;;23.00;74.50;;;;;;5029294;28;827;-67
2022/08/27 13:44:20;;;;;;;;;;;23.00;74.50;;;;;;5014189;28;997;-67
2022/08/27 13:46:49;;;;;;;;;;;23.00;74.50;;;;;;5029477;28;823;-67
2022/08/27 13:49:21;;;;;;;;;;;23.00;74.50;;;;;;4991784;28;2277;-67
2022/08/27 13:51:47;;;;;;;;;;;23.10;74.50;;;;;;4992490;28;1365;-67
2022/08/27 13:54:14;;;;;;;;;;;23.00;74.50;;;;;;5004751;28;1790;-67
2022/08/27 13:56:45;;;;;;;;;;;23.00;75.20;;;;;;4991522;28;2198;-67
2022/08/27 13:59:12;;;;;;;;;;;23.00;74.50;;;;;;4992630;28;1962;-67
2022/08/27 14:01:40;;;;;;;;;;;23.00;74.50;;;;;;4976446;28;1531;-69
2022/08/27 14:04:07;;;;;;;;;;;23.00;74.50;;;;;;4992942;28;1530;-67
2022/08/27 14:06:40;;;;;;;;;;;23.00;74.50;;;;;;4976664;28;1603;-69
2022/08/27 14:09:10;;;;;;;;;;;23.00;74.50;;;;;;4976319;28;1598;-68
2022/08/27 14:11:35;;;;;;;;;;;23.00;74.50;;;;;;4992481;28;1749;-69
2022/08/27 14:14:01;;;;;;;;;;;23.00;74.50;;;;;;4994130;28;1596;-68
2022/08/27 14:16:27;;;;;;;;;;;23.00;75.20;;;;;;4993798;28;1562;-68
2022/08/27 14:19:13;;;;;;;;;;;23.00;74.50;;;;;;4993582;28;1914;-69
2022/08/27 14:21:39;;;;;;;;;;;23.00;74.50;;;;;;4972418;28;1731;-68
2022/08/27 14:24:05;;;;;;;;;;;23.00;74.50;;;;;;4998989;28;1384;-68
2022/08/27 14:26:31;;;;;;;;;;;23.00;74.50;;;;;;4987375;28;1551;-67
2022/08/27 14:28:56;;;;;;;;;;;23.00;74.50;;;;;;4992242;28;1861;-68
2022/08/27 14:31:22;;;;;;;;;;;23.10;74.50;;;;;;4989243;28;1942;-67
2022/08/27 14:33:48;;;;;;;;;;;23.00;74.50;;;;;;4992107;28;1364;-67
2022/08/27 14:36:13;;;;;;;;;;;23.00;74.50;;;;;;4993782;28;1500;-67
2022/08/27 14:38:40;;;;;;;;;;;23.00;74.50;;;;;;4976188;28;1930;-67
2022/08/27 14:41:06;;;;;;;;;;;23.00;74.50;;;;;;5005581;28;1916;-67
2022/08/27 14:43:33;;;;;;;;;;;23.00;74.50;;;;;;4991019;28;2036;-67
2022/08/27 14:45:59;;;;;;;;;;;23.00;74.50;;;;;;4992684;28;1091;-67